Time;durP1;ratioP1;P1;durP2;ratioP2;P2;SDS_P1;SDS_P2;PMS_P1;PMS_P2;Temp;Humidity;BMP_temperature;BMP_pressure;BME280_temperature;BME280_humidity;BME280_pressure;Samples;Min_cycle;Max_cycle;Signal;HPM_P1;HPM_P2
2023/01/13 00:00:25;;;;;;;50.80;26.50;;;;;;;8.04;59.32;100323.19;4482290;32;33853;-77
2023/01/13 00:02:52;;;;;;;53.35;27.60;;;;;;;8.36;58.11;100309.69;4483816;32;33428;-77
2023/01/13 00:05:20;;;;;;;54.97;26.33;;;;;;;8.32;57.20;100310.31;4474807;32;34814;-76
2023/01/13 00:07:48;;;;;;;44.38;23.10;;;;;;;7.89;58.54;100315.37;4470306;32;34295;-76
2023/01/13 00:10:16;;;;;;;50.80;23.42;;;;;;;7.54;59.31;100314.00;4471020;32;33780;-76
2023/01/13 00:12:44;;;;;;;42.72;23.98;;;;;;;6.02;64.08;100320.00;4481999;32;33448;-76
2023/01/13 00:15:12;;;;;;;51.40;26.77;;;;;;;5.90;64.71;100319.13;4477206;32;33802;-77
2023/01/13 00:17:40;;;;;;;52.08;26.77;;;;;;;6.15;64.02;100316.62;4481636;31;33760;-76
2023/01/13 00:20:09;;;;;;;72.28;35.05;;;;;;;7.54;59.06;100305.37;4482025;32;34021;-76
2023/01/13 00:22:36;;;;;;;69.68;33.20;;;;;;;5.13;66.23;100323.78;4476768;32;34073;-76
2023/01/13 00:25:05;;;;;;;62.55;30.05;;;;;;;4.09;72.42;100322.72;4474053;32;33967;-76
2023/01/13 00:27:33;;;;;;;57.67;31.25;;;;;;;4.24;71.96;100317.00;4467033;32;34506;-76
2023/01/13 00:30:01;;;;;;;63.60;33.38;;;;;;;5.57;67.34;100308.19;4479992;32;34685;-76
2023/01/13 00:32:29;;;;;;;59.92;31.58;;;;;;;6.01;64.72;100315.66;4481285;32;34088;-76
2023/01/13 00:34:57;;;;;;;71.20;32.83;;;;;;;6.86;62.04;100312.09;4482984;32;34440;-76
2023/01/13 00:37:25;;;;;;;67.87;35.22;;;;;;;5.46;65.99;100316.78;4465325;32;34574;-76
2023/01/13 00:39:53;;;;;;;67.10;34.28;;;;;;;6.01;65.03;100319.94;4471167;32;34598;-76
2023/01/13 00:45:07;;;;;;;53.60;28.02;;;;;;;7.85;58.62;100305.66;4483772;32;33558;-76
2023/01/13 00:47:34;;;;;;;55.72;28.48;;;;;;;6.10;62.53;100311.19;4482983;32;33412;-76
2023/01/13 00:50:02;;;;;;;55.25;30.05;;;;;;;7.17;60.13;100302.97;4483756;32;33837;-76
2023/01/13 00:52:31;;;;;;;59.38;30.20;;;;;;;7.43;58.88;100299.50;4483409;32;33287;-76
2023/01/13 00:54:59;;;;;;;59.15;30.73;;;;;;;6.72;60.67;100307.69;4483857;32;33704;-76
2023/01/13 00:57:27;;;;;;;54.13;29.25;;;;;;;5.97;63.32;100308.53;4483900;32;33539;-76
2023/01/13 00:59:55;;;;;;;52.55;27.85;;;;;;;5.65;63.80;100313.88;4484027;32;34656;-76
2023/01/13 01:02:22;;;;;;;48.22;26.12;;;;;;;6.24;62.39;100307.00;4469235;32;33411;-76
2023/01/13 01:04:50;;;;;;;48.58;25.12;;;;;;;6.32;63.17;100310.09;4483833;32;34444;-76
2023/01/13 01:07:18;;;;;;;47.53;23.08;;;;;;;7.06;60.25;100315.13;4479358;32;34348;-76
2023/01/13 01:09:45;;;;;;;34.05;18.92;;;;;;;8.03;57.31;100301.63;4466123;32;33613;-76
2023/01/13 01:12:13;;;;;;;35.95;19.50;;;;;;;8.71;55.66;100290.34;4475851;32;33468;-76
2023/01/13 01:14:41;;;;;;;30.05;16.90;;;;;;;10.22;50.67;100283.38;4479389;32;34127;-77
2023/01/13 01:17:08;;;;;;;26.65;15.15;;;;;;;8.77;54.00;100282.97;4468345;32;33406;-76
2023/01/13 01:19:37;;;;;;;24.27;13.95;;;;;;;9.75;51.72;100268.72;4480437;32;33285;-77
2023/01/13 01:22:05;;;;;;;33.17;19.30;;;;;;;10.19;50.78;100283.19;4473037;32;33648;-76
2023/01/13 01:24:32;;;;;;;26.55;15.98;;;;;;;9.68;51.56;100272.66;4476346;32;34009;-76
2023/01/13 01:27:00;;;;;;;21.15;12.10;;;;;;;7.64;56.46;100279.38;4483601;32;34607;-76
2023/01/13 01:29:28;;;;;;;22.92;12.65;;;;;;;9.21;53.26;100274.34;4482456;32;34585;-76
2023/01/13 01:31:57;;;;;;;20.30;13.48;;;;;;;8.52;55.06;100277.09;4480768;31;34277;-76
2023/01/13 01:34:25;;;;;;;26.23;14.32;;;;;;;7.12;57.93;100279.47;4482355;31;33414;-76
2023/01/13 01:36:53;;;;;;;25.95;14.93;;;;;;;5.71;62.67;100283.47;4474460;31;34251;-76
2023/01/13 01:39:20;;;;;;;21.70;12.43;;;;;;;5.51;64.53;100269.22;4478307;32;33971;-76
2023/01/13 01:44:40;;;;;;;22.05;13.52;;;;;;;6.47;61.79;100277.72;4466132;32;33804;-76
2023/01/13 01:47:10;;;;;;;25.80;13.20;;;;;;;6.84;60.14;100264.75;4464335;32;34594;-76
2023/01/13 01:49:39;;;;;;;27.15;15.35;;;;;;;7.68;58.43;100261.63;4466721;32;33140;-76
2023/01/13 01:52:20;;;;;;;24.73;13.98;;;;;;;6.65;61.41;100262.62;4455594;32;34226;-76
2023/01/13 01:54:59;;;;;;;30.27;15.32;;;;;;;6.29;62.65;100267.03;4466021;32;33517;-76
2023/01/13 01:57:29;;;;;;;33.63;18.92;;;;;;;6.48;62.30;100269.19;4469644;32;33309;-76
2023/01/13 01:59:59;;;;;;;35.40;18.55;;;;;;;4.93;67.26;100276.09;4469134;32;32510;-76
2023/01/13 02:02:28;;;;;;;31.65;16.35;;;;;;;4.25;70.98;100270.06;4469562;32;33386;-76
2023/01/13 02:04:56;;;;;;;27.52;15.07;;;;;;;4.34;71.45;100260.53;4468963;32;34444;-76
2023/01/13 02:07:29;;;;;;;23.98;13.65;;;;;;;6.32;63.80;100261.22;4458681;32;34022;-76
2023/01/13 02:10:00;;;;;;;22.13;13.73;;;;;;;6.94;62.57;100247.34;4468601;32;33885;-76
2023/01/13 02:12:28;;;;;;;21.58;13.85;;;;;;;6.59;62.82;100256.19;4469417;32;33620;-76
2023/01/13 02:15:00;;;;;;;20.30;13.48;;;;;;;7.00;61.37;100245.19;4468821;32;33610;-76
2023/01/13 02:17:46;;;;;;;17.80;10.85;;;;;;;6.58;63.14;100251.81;4483673;32;33324;-77
2023/01/13 02:20:38;;;;;;;20.37;11.15;;;;;;;6.01;64.56;100248.81;4461540;32;32364;-76
2023/01/13 02:26:44;;;;;;;17.20;10.40;;;;;;;4.25;72.83;100255.59;4446779;32;34108;-76
2023/01/13 02:33:14;;;;;;;22.27;12.32;;;;;;;5.31;69.10;100235.25;4469927;32;33390;-76
2023/01/13 02:35:50;;;;;;;19.48;11.50;;;;;;;5.93;66.18;100234.50;4480330;32;35224;-76
2023/01/13 02:38:24;;;;;;;24.75;13.32;;;;;;;4.21;72.84;100239.84;4464430;32;33870;-76
2023/01/13 02:44:05;;;;;;;26.75;14.65;;;;;;;3.68;75.78;100243.47;4468486;31;35036;-76
2023/01/13 02:46:34;;;;;;;31.55;15.65;;;;;;;4.17;74.20;100250.63;4460332;32;34251;-76
2023/01/13 02:49:04;;;;;;;32.63;18.05;;;;;;;3.14;78.11;100241.72;4455198;32;34438;-76
2023/01/13 02:51:33;;;;;;;40.65;20.45;;;;;;;3.66;76.81;100237.34;4464481;32;33184;-75
2023/01/13 02:54:18;;;;;;;34.15;18.77;;;;;;;2.67;80.61;100236.19;4466131;32;33874;-76
2023/01/13 02:56:47;;;;;;;29.40;16.85;;;;;;;3.50;77.90;100231.78;4447175;32;32655;-76
2023/01/13 02:59:15;;;;;;;28.05;16.25;;;;;;;4.44;74.44;100232.25;4476344;32;34723;-76
2023/01/13 03:01:44;;;;;;;33.38;17.12;;;;;;;4.84;72.76;100224.94;4465741;32;33779;-76
2023/01/13 03:04:13;;;;;;;26.77;16.58;;;;;;;4.53;74.06;100217.53;4460644;32;35178;-76
2023/01/13 03:06:45;;;;;;;28.60;16.02;;;;;;;3.82;77.25;100223.16;4480872;32;33459;-76
2023/01/13 03:09:28;;;;;;;25.95;15.05;;;;;;;6.13;69.92;100217.03;4465639;32;33383;-76
2023/01/13 03:12:22;;;;;;;23.35;14.20;;;;;;;8.02;61.95;100212.16;4465381;32;34009;-76
2023/01/13 03:14:56;;;;;;;21.02;14.05;;;;;;;8.43;59.88;100206.06;4466683;32;34619;-76
2023/01/13 03:17:41;;;;;;;24.30;14.00;;;;;;;8.90;58.47;100196.72;4456869;32;34104;-76
2023/01/13 03:20:16;;;;;;;28.00;14.93;;;;;;;8.05;60.35;100207.19;4470301;32;34534;-76
2023/01/13 03:22:49;;;;;;;32.22;16.92;;;;;;;7.60;61.49;100200.94;4464988;32;33786;-76
2023/01/13 03:25:33;;;;;;;31.40;16.02;;;;;;;7.67;60.92;100197.09;4455515;32;33976;-76
2023/01/13 03:28:03;;;;;;;34.00;19.35;;;;;;;7.25;61.52;100206.44;4478515;32;33285;-76
2023/01/13 03:30:47;;;;;;;37.30;19.62;;;;;;;5.00;69.18;100215.81;4478510;32;36187;-75
2023/01/13 03:33:28;;;;;;;33.43;17.93;;;;;;;4.49;72.56;100204.38;4448506;32;33265;-76
2023/01/13 03:35:58;;;;;;;35.17;18.87;;;;;;;6.48;65.58;100197.13;4454255;32;33875;-76
2023/01/13 03:38:35;;;;;;;34.17;16.60;;;;;;;8.05;60.84;100189.13;4467255;32;33322;-76
2023/01/13 03:41:09;;;;;;;31.12;17.40;;;;;;;8.45;58.99;100188.06;4472632;32;33874;-76
2023/01/13 03:46:52;;;;;;;30.08;16.45;;;;;;;9.06;56.79;100183.00;4470620;32;33826;-76
2023/01/13 03:49:22;;;;;;;31.30;15.93;;;;;;;6.48;65.05;100191.97;4432415;32;34255;-76
2023/01/13 03:52:03;;;;;;;23.62;13.77;;;;;;;8.32;59.00;100189.00;4466304;32;34358;-76
2023/01/13 03:54:33;;;;;;;22.10;13.48;;;;;;;9.83;54.41;100184.62;4467662;31;33282;-76
2023/01/13 03:57:05;;;;;;;25.30;14.23;;;;;;;10.27;52.22;100182.63;4480709;31;33711;-76
2023/01/13 03:59:36;;;;;;;22.87;14.55;;;;;;;9.71;53.77;100196.91;4468810;32;33422;-76
2023/01/13 04:02:11;;;;;;;24.75;14.02;;;;;;;9.62;54.06;100187.84;4481166;32;34009;-76
2023/01/13 04:04:59;;;;;;;26.33;14.63;;;;;;;9.17;55.50;100189.66;4458205;32;34532;-76
2023/01/13 04:07:36;;;;;;;21.95;13.70;;;;;;;9.03;55.69;100191.47;4457674;32;34121;-76
2023/01/13 04:10:06;;;;;;;19.60;11.95;;;;;;;9.07;55.63;100191.66;4483762;32;33850;-76
2023/01/13 04:12:59;;;;;;;21.15;12.52;;;;;;;10.30;52.52;100187.97;4466766;31;33918;-77
2023/01/13 04:15:32;;;;;;;19.87;12.43;;;;;;;10.16;52.28;100189.81;4466096;32;34072;-76
2023/01/13 04:18:10;;;;;;;23.92;13.75;;;;;;;9.48;54.15;100188.78;4483911;32;33445;-76
2023/01/13 04:20:39;;;;;;;22.37;12.98;;;;;;;9.47;54.21;100193.91;4476483;32;34274;-76
2023/01/13 04:23:07;;;;;;;22.58;13.13;;;;;;;10.09;52.58;100192.91;4454577;32;33284;-76
2023/01/13 04:25:34;;;;;;;22.25;13.23;;;;;;;9.14;55.13;100189.50;4484250;32;34158;-76
2023/01/13 04:28:02;;;;;;;22.27;13.35;;;;;;;9.41;54.64;100187.56;4484456;32;34368;-76
2023/01/13 04:30:30;;;;;;;21.75;12.57;;;;;;;10.11;52.82;100193.88;4474702;32;32770;-76
2023/01/13 04:32:57;;;;;;;19.98;12.60;;;;;;;10.36;51.74;100193.50;4484044;32;33743;-76
2023/01/13 04:35:25;;;;;;;20.10;12.45;;;;;;;10.24;51.67;100192.03;4484403;32;33719;-76
2023/01/13 04:37:53;;;;;;;19.08;12.40;;;;;;;9.27;54.27;100197.94;4483909;32;33767;-76
2023/01/13 04:40:20;;;;;;;19.62;11.63;;;;;;;9.52;53.97;100195.94;4483715;31;33554;-76
2023/01/13 04:42:48;;;;;;;20.15;13.10;;;;;;;9.70;53.46;100200.34;4487271;31;33951;-76
2023/01/13 04:45:17;;;;;;;20.10;12.05;;;;;;;10.39;51.75;100194.56;4493712;31;33809;-76
2023/01/13 04:47:44;;;;;;;20.02;11.55;;;;;;;10.98;49.68;100192.31;4498833;31;32676;-76
2023/01/13 04:50:12;;;;;;;17.83;11.15;;;;;;;10.74;50.23;100192.87;4487787;31;33062;-76
2023/01/13 04:52:39;;;;;;;21.50;12.37;;;;;;;10.99;49.17;100183.69;4498870;31;34708;-76
2023/01/13 04:55:08;;;;;;;21.70;12.37;;;;;;;10.49;50.62;100189.81;4486886;31;34032;-76
2023/01/13 04:57:36;;;;;;;24.27;14.02;;;;;;;9.82;52.16;100193.22;4479155;31;34004;-76
2023/01/13 05:00:05;;;;;;;19.17;11.73;;;;;;;8.59;55.34;100201.78;4482562;31;33982;-76
2023/01/13 05:02:32;;;;;;;20.58;12.55;;;;;;;9.82;52.42;100195.81;4478707;31;33691;-76
2023/01/13 05:05:00;;;;;;;21.02;12.45;;;;;;;9.90;52.19;100193.63;4484158;32;34025;-76
2023/01/13 05:07:28;;;;;;;21.67;12.27;;;;;;;8.85;54.81;100196.47;4483914;32;33745;-76
2023/01/13 05:09:55;;;;;;;22.73;12.85;;;;;;;8.02;57.35;100199.25;4483234;32;33633;-76
2023/01/13 05:18:00;;;;;;;27.27;14.55;;;;;;;8.71;56.19;100206.78;4471447;32;33998;-76
2023/01/13 05:20:27;;;;;;;24.15;13.77;;;;;;;8.34;57.34;100214.91;4461968;32;34760;-76
2023/01/13 05:25:42;;;;;;;24.02;13.57;;;;;;;9.31;54.77;100213.72;4458431;32;33855;-76
2023/01/13 05:28:10;;;;;;;27.45;16.35;;;;;;;9.24;54.78;100220.22;4466324;32;33759;-76
2023/01/13 05:30:41;;;;;;;23.58;13.57;;;;;;;8.15;57.91;100223.22;4480282;32;34221;-76
2023/01/13 05:33:10;;;;;;;24.33;13.43;;;;;;;8.45;57.74;100230.25;4479127;32;34376;-76
2023/01/13 05:35:41;;;;;;;22.30;13.32;;;;;;;9.52;54.58;100219.19;4473649;32;34904;-76
2023/01/13 05:38:09;;;;;;;33.55;15.93;;;;;;;9.77;53.48;100225.69;4481622;32;33663;-76
2023/01/13 05:43:26;;;;;;;28.10;15.98;;;;;;;9.96;53.20;100228.47;4478798;32;33905;-76
2023/01/13 05:46:03;;;;;;;25.48;14.38;;;;;;;10.14;52.63;100220.84;4480254;32;33926;-76
2023/01/13 05:48:35;;;;;;;34.85;16.17;;;;;;;9.83;53.63;100220.84;4482794;31;34096;-76
2023/01/13 05:51:04;;;;;;;29.77;14.68;;;;;;;9.18;55.29;100217.28;4477975;31;33511;-76
2023/01/13 05:53:32;;;;;;;28.70;15.23;;;;;;;9.46;54.59;100218.84;4483073;31;33288;-76
2023/01/13 05:56:03;;;;;;;37.63;17.35;;;;;;;9.34;55.12;100213.87;4483024;31;33904;-76
2023/01/13 05:58:30;;;;;;;54.25;20.55;;;;;;;9.07;56.40;100213.19;4487941;31;32850;-76
2023/01/13 06:01:01;;;;;;;61.60;21.05;;;;;;;7.29;61.55;100224.78;4476697;32;33521;-76
2023/01/13 06:03:29;;;;;;;44.72;19.20;;;;;;;7.15;62.92;100220.44;4470163;32;33774;-76
2023/01/13 06:06:00;;;;;;;76.07;19.90;;;;;;;8.54;58.69;100211.88;4462263;32;33929;-76
2023/01/13 06:08:29;;;;;;;56.28;16.12;;;;;;;8.06;59.92;100211.53;4465947;31;32405;-76
2023/01/13 06:10:57;;;;;;;75.60;18.55;;;;;;;8.34;59.05;100209.75;4465477;32;33329;-76
2023/01/13 06:13:25;;;;;;;42.05;17.75;;;;;;;6.96;63.28;100225.16;4467896;32;32246;-76
2023/01/13 06:15:59;;;;;;;55.83;18.42;;;;;;;7.28;62.90;100217.84;4466007;32;33651;-76
2023/01/13 06:18:27;;;;;;;38.88;17.17;;;;;;;6.93;63.60;100222.38;4474048;31;33438;-76
2023/01/13 06:20:55;;;;;;;34.42;16.02;;;;;;;8.10;60.11;100219.47;4473823;32;34238;-76
2023/01/13 06:23:23;;;;;;;49.50;16.25;;;;;;;8.57;58.37;100218.88;4479908;32;33729;-76
2023/01/13 06:26:12;;;;;;;59.45;16.50;;;;;;;7.60;61.19;100225.84;4483147;31;33989;-76
2023/01/13 06:28:40;;;;;;;31.42;14.63;;;;;;;8.15;59.74;100223.22;4456013;32;33138;-76
2023/01/13 06:31:08;;;;;;;38.95;16.60;;;;;;;8.78;57.58;100220.16;4474061;32;33610;-77
2023/01/13 06:33:40;;;;;;;56.75;17.05;;;;;;;8.84;57.45;100215.34;4482368;32;34685;-76
2023/01/13 06:36:13;;;;;;;54.47;16.08;;;;;;;8.58;58.05;100215.53;4467076;31;34656;-76
2023/01/13 06:38:44;;;;;;;44.90;17.12;;;;;;;8.24;58.56;100218.62;4482852;31;35145;-77
2023/01/13 06:41:16;;;;;;;24.50;14.57;;;;;;;8.53;58.07;100227.25;4461540;32;33610;-76
2023/01/13 06:43:45;;;;;;;27.58;15.07;;;;;;;9.38;55.28;100217.53;4483615;31;34188;-76
2023/01/13 06:46:13;;;;;;;36.08;15.93;;;;;;;9.41;54.75;100225.47;4463242;32;33563;-76
2023/01/13 06:48:41;;;;;;;54.17;16.95;;;;;;;9.01;55.86;100223.19;4482291;32;33806;-76
2023/01/13 06:51:09;;;;;;;32.78;15.07;;;;;;;8.05;57.71;100238.16;4464671;32;33508;-76
2023/01/13 06:53:37;;;;;;;22.73;13.15;;;;;;;8.42;57.04;100239.50;4473503;32;34609;-77
2023/01/13 06:56:04;;;;;;;23.23;13.30;;;;;;;8.54;57.12;100240.28;4473207;31;33755;-77
2023/01/13 06:58:34;;;;;;;20.00;13.00;;;;;;;8.77;57.25;100232.97;4479760;31;33883;-76
2023/01/13 07:01:01;;;;;;;24.05;13.88;;;;;;;8.98;56.96;100243.66;4469597;31;32986;-77
2023/01/13 07:03:29;;;;;;;27.83;15.60;;;;;;;9.01;57.43;100246.44;4477962;32;33950;-76
2023/01/13 07:05:57;;;;;;;21.80;13.30;;;;;;;8.76;58.40;100245.00;4480564;32;34018;-77
2023/01/13 07:08:25;;;;;;;23.65;13.50;;;;;;;9.29;57.35;100240.25;4483372;32;34230;-77
2023/01/13 07:10:53;;;;;;;20.58;13.18;;;;;;;9.07;58.13;100239.03;4482921;32;33184;-76
2023/01/13 07:16:07;;;;;;;25.25;13.80;;;;;;;9.32;57.62;100240.44;4482237;32;33397;-77
2023/01/13 07:18:35;;;;;;;24.60;14.10;;;;;;;9.33;58.11;100242.22;4474929;31;34637;-76
2023/01/13 07:21:08;;;;;;;22.80;13.60;;;;;;;9.30;58.30;100237.78;4480923;31;33318;-76
2023/01/13 07:23:38;;;;;;;23.90;14.07;;;;;;;9.49;57.96;100231.06;4483975;31;34386;-77
2023/01/13 07:26:07;;;;;;;22.73;14.23;;;;;;;9.52;57.95;100228.62;4468646;31;33684;-77
2023/01/13 07:28:35;;;;;;;24.33;14.80;;;;;;;9.01;59.42;100225.78;4465750;32;34501;-76
2023/01/13 07:31:04;;;;;;;25.15;14.70;;;;;;;9.42;58.52;100232.41;4483274;32;33794;-76
2023/01/13 07:33:32;;;;;;;22.15;14.25;;;;;;;9.56;58.03;100241.84;4483491;32;34308;-77
2023/01/13 07:36:02;;;;;;;21.45;13.10;;;;;;;9.87;57.28;100238.34;4483652;32;33905;-77
2023/01/13 07:38:31;;;;;;;29.45;18.48;;;;;;;10.57;55.49;100227.41;4479697;32;34556;-77
2023/01/13 07:43:30;;;;;;;31.20;19.48;;;;;;;9.93;56.99;100240.34;4483442;32;33326;-77
2023/01/13 07:43:47;;;;;;;25.02;16.00;;;;;;;10.39;55.90;100235.06;4482781;32;34703;-77
2023/01/13 07:46:15;;;;;;;22.92;14.50;;;;;;;10.51;55.71;100242.62;4483954;32;34647;-77
2023/01/13 07:48:45;;;;;;;26.25;15.52;;;;;;;10.69;55.15;100235.78;4484299;32;33738;-77
2023/01/13 07:51:13;;;;;;;19.62;12.98;;;;;;;10.56;55.58;100233.37;4484055;32;33499;-76
2023/01/13 07:53:41;;;;;;;20.62;12.95;;;;;;;10.73;54.99;100232.53;4483744;32;33557;-77
2023/01/13 07:56:09;;;;;;;21.67;13.13;;;;;;;10.75;55.15;100246.47;4483613;32;34820;-77
2023/01/13 07:58:37;;;;;;;19.77;11.85;;;;;;;10.22;56.68;100249.72;4466955;32;33293;-77
2023/01/13 08:01:09;;;;;;;22.33;12.85;;;;;;;9.92;58.05;100257.59;4477432;32;33282;-77
2023/01/13 08:03:38;;;;;;;22.05;13.48;;;;;;;10.23;57.29;100269.59;4483922;32;33670;-76
2023/01/13 08:06:06;;;;;;;22.92;13.68;;;;;;;10.33;57.34;100264.13;4473480;31;34603;-77
2023/01/13 08:08:33;;;;;;;22.67;15.20;;;;;;;10.02;58.08;100265.06;4480196;32;33738;-77
2023/01/13 08:11:03;;;;;;;27.98;17.35;;;;;;;10.08;57.88;100263.59;4477213;32;33826;-77
2023/01/13 08:13:31;;;;;;;21.83;14.60;;;;;;;10.00;58.24;100273.53;4483219;32;35097;-77
2023/01/13 08:16:04;;;;;;;20.85;13.40;;;;;;;10.53;57.04;100274.69;4468198;32;32385;-77
2023/01/13 08:18:33;;;;;;;20.42;13.32;;;;;;;10.27;57.53;100274.13;4468890;32;33012;-77
2023/01/13 08:21:06;;;;;;;23.55;14.23;;;;;;;10.28;57.53;100267.28;4468766;32;34717;-77
2023/01/13 08:23:34;;;;;;;23.65;14.75;;;;;;;10.39;57.15;100266.16;4484817;32;34549;-77
2023/01/13 08:26:04;;;;;;;21.73;13.60;;;;;;;10.68;56.46;100267.72;4485139;32;33498;-77
2023/01/13 08:28:32;;;;;;;18.67;12.02;;;;;;;10.62;56.60;100275.13;4480969;32;32952;-77
2023/01/13 08:31:01;;;;;;;17.33;12.52;;;;;;;10.70;55.79;100273.84;4484633;32;34197;-77
2023/01/13 08:33:29;;;;;;;20.15;12.70;;;;;;;9.93;58.53;100285.25;4483221;32;33881;-77
2023/01/13 08:35:57;;;;;;;20.12;11.95;;;;;;;11.16;55.10;100277.87;4472162;32;33320;-76
2023/01/13 08:38:25;;;;;;;20.10;11.85;;;;;;;11.11;54.67;100277.66;4476495;32;33872;-77
2023/01/13 08:40:53;;;;;;;17.62;11.15;;;;;;;11.21;54.53;100274.69;4485504;32;33269;-78
2023/01/13 08:43:20;;;;;;;17.35;11.85;;;;;;;10.50;56.31;100284.87;4485187;32;33645;-77
2023/01/13 08:45:59;;;;;;;17.87;11.93;;;;;;;10.42;56.99;100287.94;4484822;32;34444;-77
2023/01/13 08:48:28;;;;;;;19.45;12.60;;;;;;;10.85;55.28;100288.41;4485599;32;33948;-77
2023/01/13 08:51:06;;;;;;;20.75;12.48;;;;;;;10.25;56.68;100293.88;4485568;32;32621;-77
2023/01/13 08:53:33;;;;;;;20.40;12.48;;;;;;;10.27;56.71;100302.63;4476157;32;33787;-77
2023/01/13 08:56:01;;;;;;;22.05;12.57;;;;;;;10.67;54.70;100312.53;4485124;32;34363;-77
2023/01/13 08:58:28;;;;;;;19.80;11.88;;;;;;;10.21;56.40;100304.87;4483063;31;33709;-77
2023/01/13 09:00:56;;;;;;;18.00;11.63;;;;;;;10.78;54.55;100308.81;4488658;31;34052;-77
2023/01/13 09:03:24;;;;;;;18.15;11.40;;;;;;;9.82;57.38;100307.06;4488850;31;33851;-78
2023/01/13 09:05:51;;;;;;;17.85;11.60;;;;;;;10.09;57.06;100312.00;4482940;31;33810;-78
2023/01/13 09:08:19;;;;;;;18.17;11.68;;;;;;;10.43;56.06;100314.75;4487732;31;33788;-78
2023/01/13 09:10:46;;;;;;;20.35;12.85;;;;;;;10.94;54.49;100299.25;4472759;31;33248;-78
2023/01/13 09:13:16;;;;;;;17.85;10.57;;;;;;;10.37;56.20;100299.75;4490885;31;33857;-77
2023/01/13 09:15:44;;;;;;;19.58;12.27;;;;;;;10.23;56.83;100301.56;4483576;31;33905;-77
2023/01/13 09:18:12;;;;;;;20.48;12.10;;;;;;;10.59;55.97;100298.31;4481168;32;33824;-78
2023/01/13 09:20:40;;;;;;;17.30;11.98;;;;;;;10.79;55.33;100284.66;4474521;32;33469;-78
2023/01/13 09:23:07;;;;;;;20.92;12.23;;;;;;;10.22;57.43;100291.13;4482785;31;33602;-78
2023/01/13 09:25:38;;;;;;;19.25;12.13;;;;;;;10.84;56.13;100289.22;4485965;31;32891;-78
2023/01/13 09:28:07;;;;;;;20.02;12.05;;;;;;;10.52;56.50;100298.78;4491928;31;33446;-78
2023/01/13 09:30:35;;;;;;;19.25;11.77;;;;;;;10.19;57.73;100299.62;4486818;31;33477;-78
2023/01/13 09:35:49;;;;;;;17.02;11.30;;;;;;;10.21;57.27;100294.53;4481432;31;34488;-78
2023/01/13 09:38:17;;;;;;;21.62;12.95;;;;;;;10.80;56.02;100278.69;4484856;32;33985;-78
2023/01/13 09:40:46;;;;;;;17.90;12.07;;;;;;;10.60;56.36;100292.31;4480515;31;33251;-78
2023/01/13 09:46:42;;;;;;;20.12;12.57;;;;;;;11.39;54.14;100273.81;4461903;32;34596;-78
2023/01/13 09:49:02;;;;;;;20.25;12.57;;;;;;;10.22;57.06;100278.19;4487417;31;33659;-78
2023/01/13 09:51:34;;;;;;;21.98;12.90;;;;;;;10.94;55.29;100273.31;4478598;31;33960;-77
2023/01/13 09:54:07;;;;;;;20.30;13.20;;;;;;;10.43;57.04;100274.19;4481487;31;33679;-77
2023/01/13 09:56:35;;;;;;;20.98;13.18;;;;;;;10.97;55.84;100269.19;4483743;31;33809;-78
2023/01/13 09:59:02;;;;;;;19.85;12.50;;;;;;;11.04;55.75;100270.38;4489501;31;33783;-78
2023/01/13 10:01:50;;;;;;;20.95;13.10;;;;;;;11.14;55.63;100266.53;4467675;32;33221;-78
2023/01/13 10:04:18;;;;;;;23.42;12.95;;;;;;;10.73;56.64;100268.81;4476370;32;33664;-77
2023/01/13 10:06:51;;;;;;;20.50;13.27;;;;;;;12.14;52.77;100268.75;4492250;31;33863;-77
2023/01/13 10:09:28;;;;;;;22.50;13.45;;;;;;;12.37;51.91;100267.19;4487329;31;33926;-78
2023/01/13 10:14:55;;;;;;;19.95;13.05;;;;;;;11.24;54.60;100265.28;4477418;32;33775;-77
2023/01/13 10:17:51;;;;;;;20.05;12.88;;;;;;;11.48;54.21;100266.50;4481868;32;33603;-78
2023/01/13 10:20:30;;;;;;;21.42;13.10;;;;;;;11.71;53.49;100271.91;4426785;32;33653;-76
2023/01/13 10:23:03;;;;;;;22.48;12.95;;;;;;;11.56;53.89;100272.94;4462975;32;34194;-78
2023/01/13 10:25:52;;;;;;;20.98;12.88;;;;;;;11.15;54.82;100264.03;4476622;31;34023;-77
2023/01/13 10:28:22;;;;;;;23.50;13.10;;;;;;;11.38;54.58;100264.28;4475734;31;33626;-77
2023/01/13 10:30:50;;;;;;;21.90;13.48;;;;;;;11.78;53.70;100268.78;4490636;31;33319;-76
2023/01/13 10:33:24;;;;;;;21.85;13.98;;;;;;;12.03;52.79;100267.37;4471159;31;33540;-77
2023/01/13 10:35:58;;;;;;;26.70;13.98;;;;;;;12.15;52.58;100258.44;4484633;31;34694;-76
2023/01/13 10:38:33;;;;;;;24.87;15.40;;;;;;;11.75;53.65;100269.53;4474276;32;33893;-76
2023/01/13 10:41:15;;;;;;;23.62;13.25;;;;;;;11.68;53.93;100261.37;4478305;31;33383;-77
2023/01/13 10:44:04;;;;;;;22.62;14.87;;;;;;;11.08;56.28;100253.28;4464162;32;33565;-77
2023/01/13 10:46:50;;;;;;;26.48;14.52;;;;;;;12.00;53.02;100245.62;4484046;32;33893;-76
2023/01/13 10:49:33;;;;;;;22.75;13.50;;;;;;;11.83;53.47;100243.06;4478513;32;33854;-78
2023/01/13 10:52:02;;;;;;;22.67;12.70;;;;;;;11.90;53.28;100246.03;4480906;32;33944;-78
2023/01/13 10:54:29;;;;;;;25.83;13.70;;;;;;;12.21;52.13;100239.66;4469785;32;34589;-78
2023/01/13 10:57:20;;;;;;;23.67;12.80;;;;;;;11.98;52.78;100236.00;4479548;32;33426;-78
2023/01/13 10:59:48;;;;;;;25.30;13.62;;;;;;;10.49;57.27;100231.28;4477413;32;34545;-76
2023/01/13 11:02:15;;;;;;;22.25;13.32;;;;;;;11.58;54.19;100224.59;4473882;31;34185;-77
2023/01/13 11:04:52;;;;;;;24.87;13.38;;;;;;;12.63;51.11;100213.75;4479739;31;33275;-77
2023/01/13 11:07:33;;;;;;;23.00;12.90;;;;;;;10.98;55.40;100218.22;4483563;31;33941;-77
2023/01/13 11:10:08;;;;;;;25.40;14.07;;;;;;;10.55;56.91;100216.06;4483746;32;33211;-77
2023/01/13 11:12:47;;;;;;;25.98;14.05;;;;;;;11.09;55.74;100211.00;4481668;31;34589;-78
2023/01/13 11:15:19;;;;;;;26.48;14.77;;;;;;;11.52;54.80;100203.56;4483294;31;33305;-77
2023/01/13 11:18:03;;;;;;;22.33;12.48;;;;;;;11.05;55.72;100199.59;4483323;32;34233;-77
2023/01/13 11:20:40;;;;;;;23.55;13.55;;;;;;;10.99;56.21;100191.47;4482188;32;35448;-77
2023/01/13 11:23:15;;;;;;;24.95;13.35;;;;;;;11.72;53.76;100190.63;4461812;31;34619;-77
2023/01/13 11:25:46;;;;;;;22.87;12.80;;;;;;;10.86;56.59;100186.53;4481778;32;33587;-76
2023/01/13 11:28:34;;;;;;;28.90;13.65;;;;;;;10.06;58.59;100195.34;4465717;32;34471;-76
2023/01/13 11:31:18;;;;;;;22.35;13.07;;;;;;;11.44;54.96;100189.34;4469650;32;34620;-77
2023/01/13 11:33:52;;;;;;;23.80;13.57;;;;;;;11.59;53.86;100184.88;4483531;32;33660;-77
2023/01/13 11:36:23;;;;;;;25.83;13.60;;;;;;;11.50;54.64;100184.44;4469039;31;33634;-76
2023/01/13 11:38:53;;;;;;;23.00;13.60;;;;;;;11.76;53.79;100184.75;4466094;32;33844;-76
2023/01/13 11:41:42;;;;;;;24.55;12.80;;;;;;;11.20;55.59;100189.03;4465801;32;33459;-76
2023/01/13 11:44:40;;;;;;;25.17;13.62;;;;;;;11.48;55.05;100191.28;4468825;32;34278;-75
2023/01/13 11:47:10;;;;;;;24.27;12.85;;;;;;;9.82;59.13;100199.28;4469492;31;34254;-76
2023/01/13 11:49:38;;;;;;;22.27;13.35;;;;;;;10.63;57.54;100178.47;4471528;32;33877;-77
2023/01/13 11:52:15;;;;;;;24.40;13.55;;;;;;;11.27;55.16;100169.50;4474530;32;33947;-77
2023/01/13 11:55:11;;;;;;;25.00;13.15;;;;;;;11.67;54.48;100161.88;4452095;32;32790;-76
2023/01/13 11:57:53;;;;;;;23.12;13.48;;;;;;;11.60;54.46;100160.69;4473666;31;33541;-77
2023/01/13 12:01:06;;;;;;;25.80;13.25;;;;;;;11.95;53.53;100155.37;4472756;31;33317;-77
2023/01/13 12:03:42;;;;;;;23.10;13.83;;;;;;;11.80;53.63;100152.94;4467305;31;34592;-76
2023/01/13 12:06:36;;;;;;;27.15;14.55;;;;;;;11.00;56.71;100142.31;4470346;31;34510;-76
2023/01/13 12:09:22;;;;;;;25.05;14.70;;;;;;;10.32;59.42;100135.50;4483417;32;33290;-76
2023/01/13 12:15:12;;;;;;;28.27;14.68;;;;;;;9.57;62.32;100129.81;4476066;32;34736;-76
2023/01/13 12:17:57;;;;;;;32.45;15.40;;;;;;;10.73;57.99;100121.13;4466560;32;33805;-77
2023/01/13 12:20:37;;;;;;;31.37;16.80;;;;;;;11.28;56.04;100109.94;4476420;31;33147;-77